Pagina principale
METAR-TAF:

METAR-TAF

Aeroporti :

Boscombe Down, Inghilterra

latitudine: 51-10N, longitudine: 001-45W, altezza: 124 m

Osservazione

Il bollettino è stato emesso 1 ora e 23 minuti fa, alle 08:50 UTC
Vento 6 kt da nord-ovest
Temperature 14°C
Umidità 72%
Pressione 1008 hPa

METAR: EGDM 070850Z AUTO 31006KT //// FEW020/// 14/09 Q1008

Ora: 11:13 (10:13 UTC)


TAF: mancante

Osservazioni e previsioni meteorologiche di più di 4000 aeroporti (messaggi METAR e TAF).

Le stazioni disponibili sono rappresentate dai dischi gialli e rossi sulla carta.

Puntare il mouse per vedere il nome della stazione.

Clicca sopra per visualizzare le osservazioni e previsioni meteorologiche.

Per cambiare la mappa : fare clic sui pulsanti verdi con una croce nera per ingrandire, il pulsante verde con un trattino per diminuire, o sulla freccia verde per le mappe adiacenti.


METAR-TAF: